Time;durP1;ratioP1;P1;durP2;ratioP2;P2;SDS_P1;SDS_P2;PMS_P1;PMS_P2;Temp;Humidity;BMP_temperature;BMP_pressure;BME280_temperature;BME280_humidity;BME280_pressure;Samples;Min_cycle;Max_cycle;Signal;HPM_P1;HPM_P2
2022/09/30 00:00:57;;;;;;;0.40;0.22;;;22.50;46.70;;;;;;6106634;28;20728;-55
2022/09/30 00:03:58;;;;;;;0.40;0.32;;;22.50;46.80;;;;;;6111122;28;21087;-55
2022/09/30 00:07:01;;;;;;;0.50;0.30;;;22.30;46.70;;;;;;6110729;28;20116;-54
2022/09/30 00:10:03;;;;;;;0.30;0.30;;;22.10;46.60;;;;;;6112800;28;20045;-56
2022/09/30 00:13:04;;;;;;;0.40;0.28;;;22.20;46.50;;;;;;6114732;28;20050;-56
2022/09/30 00:16:06;;;;;;;;;;;22.30;46.60;;;;;;6113496;28;20051;-52
2022/09/30 00:19:07;;;;;;;0.40;0.30;;;22.30;46.70;;;;;;6116665;28;20939;-54
2022/09/30 00:22:10;;;;;;;0.30;0.30;;;22.10;46.60;;;;;;6114061;28;20068;-56
2022/09/30 00:25:11;;;;;;;0.40;0.40;;;22.50;46.70;;;;;;6110254;28;20054;-54
2022/09/30 00:28:13;;;;;;;;;;;21.70;46.20;;;;;;6114882;28;20126;-55
2022/09/30 00:31:16;;;;;;;0.20;0.20;;;22.20;46.70;;;;;;6120074;28;20749;-55
2022/09/30 00:34:18;;;;;;;0.20;0.20;;;22.20;46.50;;;;;;6115097;28;21308;-56
2022/09/30 00:37:20;;;;;;;0.40;0.40;;;22.10;46.50;;;;;;6115228;28;20078;-54
2022/09/30 00:40:22;;;;;;;0.88;0.65;;;22.50;46.70;;;;;;6110951;28;20058;-55
2022/09/30 00:43:41;;;;;;;0.47;0.20;;;22.30;46.60;;;;;;6115429;28;20041;-56
2022/09/30 00:46:42;;;;;;;1.75;0.40;;;22.30;46.40;;;;;;6110900;28;20078;-55
2022/09/30 00:49:46;;;;;;;0.40;0.30;;;22.40;46.60;;;;;;6121104;28;20054;-54
2022/09/30 00:52:51;;;;;;;;;;;22.90;46.80;;;;;;6114248;28;20047;-56
2022/09/30 00:55:58;;;;;;;0.30;0.20;;;22.30;46.60;;;;;;6110426;28;20008;-54
2022/09/30 00:59:04;;;;;;;0.40;0.40;;;22.40;46.50;;;;;;6109486;28;20055;-54
2022/09/30 01:02:10;;;;;;;0.30;0.20;;;22.30;46.40;;;;;;6112250;28;20089;-54
2022/09/30 01:05:12;;;;;;;0.50;0.30;;;22.20;46.30;;;;;;6109933;28;20050;-54
2022/09/30 01:08:20;;;;;;;0.43;0.40;;;22.30;46.50;;;;;;6112877;28;20050;-55
2022/09/30 01:11:22;;;;;;;1.33;0.30;;;22.10;46.30;;;;;;6110759;28;20807;-56
2022/09/30 01:14:26;;;;;;;0.30;0.20;;;22.10;46.20;;;;;;6106372;28;20155;-55
2022/09/30 01:17:38;;;;;;;0.30;0.30;;;21.90;46.20;;;;;;6112818;28;20143;-55
2022/09/30 01:20:58;;;;;;;0.30;0.30;;;22.80;46.60;;;;;;6107032;28;20057;-56
2022/09/30 01:24:16;;;;;;;0.30;0.30;;;22.20;46.30;;;;;;6114554;28;20713;-57
2022/09/30 01:27:31;;;;;;;0.65;0.30;;;21.70;46.10;;;;;;6108968;28;20039;-55
2022/09/30 01:30:47;;;;;;;0.50;0.38;;;21.90;46.10;;;;;;6107988;28;20043;-55
2022/09/30 01:33:56;;;;;;;0.30;0.28;;;22.00;46.10;;;;;;6117548;28;20050;-55
2022/09/30 01:37:07;;;;;;;0.32;0.20;;;21.90;46.00;;;;;;6109852;28;20043;-56
2022/09/30 01:40:21;;;;;;;0.20;0.20;;;22.10;46.10;;;;;;6110828;28;20099;-55
2022/09/30 01:43:32;;;;;;;0.50;0.30;;;21.60;45.90;;;;;;6114181;28;20054;-54
2022/09/30 01:46:42;;;;;;;0.47;0.38;;;22.10;46.10;;;;;;6110732;28;20058;-54
2022/09/30 01:49:49;;;;;;;0.30;0.30;;;22.20;46.20;;;;;;6109733;28;20787;-55
2022/09/30 01:52:57;;;;;;;0.30;0.30;;;22.20;46.60;;;;;;6114057;28;20221;-54
2022/09/30 01:56:04;;;;;;;0.47;0.30;;;21.90;46.00;;;;;;6099711;28;20093;-55
2022/09/30 01:59:11;;;;;;;0.35;0.32;;;22.10;46.20;;;;;;6113446;28;20905;-56
2022/09/30 02:02:19;;;;;;;0.30;0.28;;;22.30;46.10;;;;;;6111751;28;20072;-55
2022/09/30 02:05:28;;;;;;;1.38;0.40;;;21.70;45.80;;;;;;6112655;28;20043;-56
2022/09/30 02:08:38;;;;;;;0.55;0.55;;;22.00;46.50;;;;;;6111503;28;21071;-54
2022/09/30 02:11:44;;;;;;;0.20;0.20;;;22.20;46.20;;;;;;6113211;28;20054;-55
2022/09/30 02:14:50;;;;;;;0.55;0.40;;;22.10;45.80;;;;;;6117926;28;20841;-55
2022/09/30 02:17:59;;;;;;;0.40;0.25;;;22.20;45.80;;;;;;6114367;28;20059;-54
2022/09/30 02:21:04;;;;;;;0.63;0.30;;;22.20;45.80;;;;;;6111140;28;20222;-55
2022/09/30 02:24:09;;;;;;;0.30;0.30;;;21.80;45.50;;;;;;6113046;28;20238;-54
2022/09/30 02:27:17;;;;;;;0.75;0.40;;;21.90;45.50;;;;;;6116699;28;20074;-55
2022/09/30 02:30:19;;;;;;;0.20;0.20;;;22.10;45.50;;;;;;6116785;28;20074;-54
2022/09/30 02:33:30;;;;;;;0.30;0.30;;;21.90;45.50;;;;;;6117506;28;20074;-55
2022/09/30 02:36:39;;;;;;;0.28;0.25;;;21.70;45.20;;;;;;6117382;28;20157;-55
2022/09/30 02:39:48;;;;;;;0.35;0.35;;;22.20;45.40;;;;;;6116107;28;20160;-53
2022/09/30 02:42:50;;;;;;;0.63;0.50;;;21.80;45.20;;;;;;6119181;28;20035;-54
2022/09/30 02:46:02;;;;;;;0.30;0.28;;;21.80;45.20;;;;;;6114325;28;20050;-53
2022/09/30 02:49:09;;;;;;;0.50;0.45;;;21.60;45.00;;;;;;6110832;28;20363;-51
2022/09/30 02:52:21;;;;;;;0.20;0.20;;;22.00;45.10;;;;;;6104830;28;20050;-49
2022/09/30 02:55:30;;;;;;;0.20;0.20;;;22.00;45.10;;;;;;6103126;28;20189;-53
2022/09/30 02:58:35;;;;;;;0.47;0.30;;;22.60;45.40;;;;;;6106798;28;20053;-55
2022/09/30 03:01:40;;;;;;;0.40;0.30;;;21.50;44.80;;;;;;6117376;28;21135;-54
2022/09/30 03:04:45;;;;;;;0.20;0.20;;;21.50;44.80;;;;;;6114487;28;20112;-54
2022/09/30 03:07:50;;;;;;;0.35;0.30;;;21.60;44.70;;;;;;6113484;28;20049;-55
2022/09/30 03:10:52;;;;;;;0.30;0.22;;;21.60;44.80;;;;;;6116609;28;20173;-55
2022/09/30 03:14:16;;;;;;;0.28;0.28;;;21.60;44.80;;;;;;6116654;28;21285;-54
2022/09/30 03:17:34;;;;;;;3.38;0.40;;;21.70;44.60;;;;;;6120149;28;20177;-55
2022/09/30 03:20:46;;;;;;;0.75;0.30;;;21.50;44.70;;;;;;6110535;28;20190;-55
2022/09/30 03:24:13;;;;;;;0.45;0.20;;;21.70;44.80;;;;;;6117110;28;20057;-55
2022/09/30 03:27:22;;;;;;;0.60;0.40;;;22.00;45.20;;;;;;6108378;28;20101;-56
2022/09/30 03:30:26;;;;;;;0.40;0.30;;;21.80;45.00;;;;;;6114940;28;20039;-53
2022/09/30 03:33:37;;;;;;;0.40;0.40;;;21.90;45.10;;;;;;6119047;28;20063;-54
2022/09/30 03:36:47;;;;;;;0.30;0.20;;;21.70;44.90;;;;;;6116102;28;20050;-56
2022/09/30 03:39:58;;;;;;;1.63;0.38;;;21.60;44.80;;;;;;6117614;28;20323;-51
2022/09/30 03:43:04;;;;;;;;;;;22.00;44.90;;;;;;6104526;28;21128;-52
2022/09/30 03:46:15;;;;;;;1.10;0.30;;;22.00;45.20;;;;;;6103628;28;19926;-57
2022/09/30 03:49:21;;;;;;;0.38;0.38;;;21.80;59.20;;;;;;6116758;28;20046;-57
2022/09/30 03:52:25;;;;;;;0.45;0.38;;;21.80;44.80;;;;;;6115308;28;20837;-54
2022/09/30 03:55:27;;;;;;;0.65;0.43;;;22.00;44.90;;;;;;6114513;28;20043;-56
2022/09/30 03:58:29;;;;;;;0.40;0.20;;;21.40;44.50;;;;;;6116011;28;20910;-53
2022/09/30 04:01:30;;;;;;;0.82;0.30;;;21.80;44.80;;;;;;6115646;28;20183;-52
2022/09/30 04:04:32;;;;;;;0.30;0.30;;;21.40;44.50;;;;;;6105516;28;20787;-54
2022/09/30 04:07:34;;;;;;;;;;;21.80;44.60;;;;;;6101754;28;20138;-49
2022/09/30 04:10:40;;;;;;;0.77;0.40;;;21.60;44.60;;;;;;6103855;28;19964;-54
2022/09/30 04:13:41;;;;;;;0.22;0.20;;;22.00;44.60;;;;;;6099765;28;20814;-50
2022/09/30 04:16:43;;;;;;;;;;;21.60;44.50;;;;;;6099173;28;20053;-51
2022/09/30 04:19:44;;;;;;;0.30;0.20;;;21.50;44.60;;;;;;6100464;28;19930;-55
2022/09/30 04:22:46;;;;;;;;;;;21.60;44.50;;;;;;6109260;28;20043;-54
2022/09/30 04:25:52;;;;;;;0.32;0.32;;;21.40;44.50;;;;;;6101350;28;21617;-48
2022/09/30 04:28:57;;;;;;;0.47;0.35;;;21.50;44.20;;;;;;6096175;28;20565;-50
2022/09/30 04:31:58;;;;;;;0.30;0.30;;;21.70;44.40;;;;;;6093024;28;20464;-51
2022/09/30 04:35:00;;;;;;;0.43;0.35;;;21.90;44.50;;;;;;6093872;28;20050;-52
2022/09/30 04:38:05;;;;;;;;;;;21.70;44.50;;;;;;6097939;28;20332;-50
2022/09/30 04:41:14;;;;;;;0.30;0.30;;;21.30;44.30;;;;;;6096965;28;20061;-52
2022/09/30 04:44:16;;;;;;;0.20;0.20;;;21.90;44.50;;;;;;6100697;28;20601;-55
2022/09/30 04:47:17;;;;;;;;;;;21.70;44.40;;;;;;6107903;28;20073;-54
2022/09/30 04:50:19;;;;;;;0.35;0.30;;;21.30;44.30;;;;;;6105687;28;20787;-53
2022/09/30 04:53:21;;;;;;;;;;;21.70;44.40;;;;;;6108210;28;20223;-54
2022/09/30 04:56:23;;;;;;;;;;;21.50;44.30;;;;;;6105028;28;20049;-56
2022/09/30 04:59:24;;;;;;;0.20;0.20;;;21.50;44.40;;;;;;6108654;28;19926;-55
2022/09/30 05:02:25;;;;;;;;;;;21.50;44.40;;;;;;6105721;28;20047;-51
2022/09/30 05:05:27;;;;;;;0.20;0.20;;;21.30;44.50;;;;;;6108969;28;21659;-53
2022/09/30 05:08:31;;;;;;;;;;;21.30;44.40;;;;;;6107483;28;20149;-54
2022/09/30 05:11:41;;;;;;;0.30;0.30;;;21.70;44.70;;;;;;6106334;28;19936;-56
2022/09/30 05:14:42;;;;;;;0.60;0.40;;;21.80;44.40;;;;;;6123473;28;20041;-55
2022/09/30 05:17:47;;;;;;;0.30;0.30;;;21.70;44.40;;;;;;6105738;28;21090;-55
2022/09/30 05:20:49;;;;;;;0.60;0.25;;;21.30;44.40;;;;;;6105631;28;20047;-52
2022/09/30 05:23:53;;;;;;;0.50;0.47;;;21.50;44.10;;;;;;6096873;28;20039;-55
2022/09/30 05:26:54;;;;;;;0.60;0.40;;;21.50;44.00;;;;;;6103134;28;20177;-56
2022/09/30 05:29:55;;;;;;;;;;;21.60;44.20;;;;;;6102305;28;20045;-57
2022/09/30 05:32:57;;;;;;;0.47;0.30;;;21.80;44.50;;;;;;6102219;28;19930;-56
2022/09/30 05:35:59;;;;;;;;;;;21.50;44.10;;;;;;6099398;28;20854;-56
2022/09/30 05:39:01;;;;;;;0.40;0.22;;;21.80;44.40;;;;;;6102774;28;21614;-55
2022/09/30 05:42:03;;;;;;;0.32;0.28;;;21.60;44.40;;;;;;6103525;28;20146;-55
2022/09/30 05:45:06;;;;;;;0.82;0.40;;;21.70;44.30;;;;;;6101966;28;20145;-55
2022/09/30 05:48:08;;;;;;;1.00;0.40;;;21.60;44.00;;;;;;6093188;28;20050;-55
2022/09/30 05:51:09;;;;;;;0.32;0.28;;;21.80;44.20;;;;;;6090252;28;20807;-49
2022/09/30 05:54:11;;;;;;;;;;;21.40;43.90;;;;;;6092218;28;20179;-54
2022/09/30 05:57:13;;;;;;;0.43;0.43;;;21.30;44.00;;;;;;6080707;28;20966;-56
2022/09/30 06:00:14;;;;;;;0.60;0.38;;;21.70;44.30;;;;;;6049213;28;20120;-57
2022/09/30 06:03:17;;;;;;;0.47;0.40;;;21.20;43.90;;;;;;6080004;28;20046;-56
2022/09/30 06:06:20;;;;;;;0.98;0.30;;;21.20;43.70;;;;;;6087048;28;20495;-57
2022/09/30 06:09:22;;;;;;;0.68;0.57;;;21.40;44.00;;;;;;6056116;28;20149;-54
2022/09/30 06:12:27;;;;;;;0.30;0.30;;;21.10;43.70;;;;;;6067932;28;20078;-56
2022/09/30 06:15:29;;;;;;;0.50;0.30;;;21.70;44.70;;;;;;6035494;28;20149;-56
2022/09/30 06:18:31;;;;;;;0.55;0.40;;;21.30;43.80;;;;;;6053245;28;20176;-56
2022/09/30 06:21:32;;;;;;;;;;;21.10;43.60;;;;;;6041055;28;20062;-57
2022/09/30 06:24:34;;;;;;;0.30;0.25;;;21.50;44.10;;;;;;6084769;28;19937;-56
2022/09/30 06:27:36;;;;;;;0.52;0.50;;;21.30;43.80;;;;;;6051104;28;20290;-50
2022/09/30 06:30:38;;;;;;;1.10;0.40;;;21.80;43.90;;;;;;6064931;28;20047;-56
2022/09/30 06:33:41;;;;;;;;;;;21.30;43.70;;;;;;6048448;28;20101;-56
2022/09/30 06:36:42;;;;;;;0.30;0.30;;;21.40;43.80;;;;;;6072877;28;20060;-56
2022/09/30 06:39:45;;;;;;;;;;;21.90;44.00;;;;;;6051443;28;20943;-52
2022/09/30 06:42:47;;;;;;;0.43;0.38;;;21.50;43.90;;;;;;6057365;28;20242;-56
2022/09/30 06:45:50;;;;;;;0.30;0.20;;;21.60;43.90;;;;;;6070253;28;20149;-56
2022/09/30 06:48:54;;;;;;;0.43;0.30;;;21.10;43.40;;;;;;6014302;28;22174;-57
2022/09/30 06:52:12;;;;;;;0.45;0.40;;;21.50;43.60;;;;;;6002745;28;20053;-57
2022/09/30 06:55:14;;;;;;;0.50;0.30;;;22.10;43.90;;;;;;6004541;28;20185;-57
2022/09/30 06:58:16;;;;;;;0.30;0.30;;;21.90;43.60;;;;;;6002088;28;20061;-57
2022/09/30 07:01:19;;;;;;;;;;;22.10;43.60;;;;;;6004390;28;20051;-57
2022/09/30 07:04:21;;;;;;;0.40;0.38;;;21.30;43.50;;;;;;5967909;28;19976;-57
2022/09/30 07:07:22;;;;;;;;;;;21.50;43.20;;;;;;5948566;28;20062;-57
2022/09/30 07:10:24;;;;;;;0.45;0.40;;;22.00;43.80;;;;;;5959080;28;19937;-57
2022/09/30 07:13:26;;;;;;;0.70;0.50;;;22.00;43.60;;;;;;5960838;28;20818;-59
2022/09/30 07:16:28;;;;;;;0.50;0.40;;;21.80;43.60;;;;;;5954835;28;20469;-56
2022/09/30 07:19:30;;;;;;;0.93;0.50;;;21.80;43.70;;;;;;5919677;28;20326;-56
2022/09/30 07:22:33;;;;;;;0.68;0.50;;;22.10;43.90;;;;;;5953649;28;20050;-57
2022/09/30 07:25:35;;;;;;;0.68;0.60;;;22.20;44.00;;;;;;5961875;28;20510;-58
2022/09/30 07:28:38;;;;;;;0.80;0.60;;;22.30;44.00;;;;;;5942221;28;20041;-58
2022/09/30 07:31:40;;;;;;;0.63;0.60;;;22.00;43.70;;;;;;5913092;28;20846;-57
2022/09/30 07:34:42;;;;;;;0.70;0.50;;;21.80;43.80;;;;;;5882316;28;20051;-56
2022/09/30 07:37:44;;;;;;;0.60;0.50;;;22.30;43.90;;;;;;5870689;28;20046;-57
2022/09/30 07:40:57;;;;;;;0.52;0.40;;;22.00;43.80;;;;;;5861051;28;20138;-57
2022/09/30 07:43:58;;;;;;;0.40;0.40;;;22.20;43.80;;;;;;5860656;28;20053;-57
2022/09/30 07:47:00;;;;;;;0.40;0.40;;;21.90;43.70;;;;;;5882318;28;20047;-58
2022/09/30 07:50:02;;;;;;;0.40;0.30;;;22.20;43.80;;;;;;5865567;28;20046;-58
2022/09/30 07:53:04;;;;;;;0.55;0.30;;;22.40;44.00;;;;;;5935598;28;20189;-55
2022/09/30 07:56:08;;;;;;;1.27;0.40;;;22.10;43.70;;;;;;5970727;28;20059;-56
2022/09/30 07:59:10;;;;;;;0.50;0.50;;;22.40;43.90;;;;;;5962225;28;20046;-55
2022/09/30 08:02:15;;;;;;;0.85;0.40;;;22.40;44.10;;;;;;5923839;28;20054;-56
2022/09/30 08:05:17;;;;;;;0.55;0.50;;;22.20;44.00;;;;;;5936524;28;20050;-54
2022/09/30 08:08:19;;;;;;;0.50;0.30;;;22.30;44.00;;;;;;5943473;28;20046;-57
2022/09/30 08:11:21;;;;;;;0.70;0.30;;;22.60;44.40;;;;;;5927439;28;20046;-57
2022/09/30 08:14:25;;;;;;;0.30;0.30;;;22.00;44.10;;;;;;5956074;28;22347;-57
2022/09/30 08:17:27;;;;;;;0.50;0.50;;;22.30;44.30;;;;;;5973016;28;20061;-55
2022/09/30 08:20:30;;;;;;;0.35;0.30;;;22.10;44.40;;;;;;5949719;28;25435;-56
2022/09/30 08:23:32;;;;;;;0.45;0.40;;;22.40;44.70;;;;;;5961620;28;20871;-57
2022/09/30 08:26:34;;;;;;;0.45;0.30;;;22.50;45.10;;;;;;5965826;28;20078;-55
2022/09/30 08:29:36;;;;;;;0.30;0.20;;;22.40;44.90;;;;;;5977707;28;20062;-57
2022/09/30 08:32:57;;;;;;;0.22;0.22;;;22.40;45.10;;;;;;5967251;28;22054;-51
2022/09/30 08:36:02;;;;;;;0.45;0.40;;;22.40;45.10;;;;;;5900134;28;20043;-53
2022/09/30 08:39:05;;;;;;;0.30;0.22;;;22.70;45.40;;;;;;5927498;28;20070;-56
2022/09/30 08:42:26;;;;;;;0.20;0.20;;;22.40;45.40;;;;;;5911765;28;21369;-55
2022/09/30 08:46:01;;;;;;;0.50;0.40;;;22.40;45.70;;;;;;5938913;28;20043;-56
2022/09/30 08:49:14;;;;;;;0.40;0.40;;;22.30;45.70;;;;;;5970624;28;20051;-56
2022/09/30 08:52:22;;;;;;;0.32;0.30;;;22.50;45.90;;;;;;5964261;28;20055;-55
2022/09/30 08:55:41;;;;;;;0.50;0.38;;;22.40;46.10;;;;;;5942229;28;20378;-54
2022/09/30 08:58:45;;;;;;;0.50;0.30;;;22.50;46.30;;;;;;5938286;28;20047;-55
2022/09/30 09:01:57;;;;;;;0.32;0.32;;;22.30;46.30;;;;;;5915412;28;20128;-57
2022/09/30 09:05:01;;;;;;;0.35;0.30;;;22.50;46.30;;;;;;5925748;28;20043;-54
2022/09/30 09:08:11;;;;;;;0.80;0.35;;;22.60;46.60;;;;;;5962103;28;20161;-56
2022/09/30 09:11:23;;;;;;;0.30;0.30;;;22.80;46.80;;;;;;5938662;28;20052;-55
2022/09/30 09:14:37;;;;;;;0.68;0.52;;;22.80;46.90;;;;;;5925345;28;20058;-52
2022/09/30 09:17:57;;;;;;;0.50;0.40;;;22.50;46.80;;;;;;5959062;28;20640;-56
2022/09/30 09:21:26;;;;;;;0.73;0.40;;;22.80;47.20;;;;;;5953535;28;20253;-57
2022/09/30 09:24:37;;;;;;;0.43;0.40;;;22.90;47.20;;;;;;5953678;28;20040;-56
2022/09/30 09:27:45;;;;;;;0.57;0.40;;;22.70;47.20;;;;;;5984559;28;20050;-57
2022/09/30 09:30:53;;;;;;;0.30;0.30;;;22.90;47.40;;;;;;5952297;28;20116;-57
2022/09/30 09:34:01;;;;;;;0.52;0.30;;;22.80;47.50;;;;;;5968619;28;21924;-55
2022/09/30 09:37:13;;;;;;;0.50;0.38;;;22.90;47.70;;;;;;5960828;28;20177;-57
2022/09/30 09:40:23;;;;;;;0.52;0.43;;;23.00;47.80;;;;;;5920657;28;21428;-56
2022/09/30 09:43:34;;;;;;;0.32;0.20;;;22.90;48.00;;;;;;5928009;28;20086;-53
2022/09/30 09:46:44;;;;;;;0.30;0.20;;;22.90;48.00;;;;;;5940140;28;21220;-55
2022/09/30 09:49:50;;;;;;;0.20;0.20;;;22.90;48.00;;;;;;5932344;28;20122;-57
2022/09/30 09:53:15;;;;;;;0.20;0.20;;;22.90;48.00;;;;;;5947599;28;20046;-57
2022/09/30 09:56:18;;;;;;;0.20;0.20;;;22.90;48.10;;;;;;5954832;28;22845;-54
2022/09/30 09:59:20;;;;;;;0.10;0.10;;;22.40;47.70;;;;;;5953530;28;20047;-58
2022/09/30 10:02:25;;;;;;;0.20;0.20;;;22.80;48.00;;;;;;5926741;28;20121;-55
2022/09/30 10:05:29;;;;;;;0.10;0.10;;;22.60;47.90;;;;;;5941252;28;20047;-56
2022/09/30 10:08:32;;;;;;;0.20;0.20;;;22.90;48.10;;;;;;5937670;28;20449;-55
2022/09/30 10:11:34;;;;;;;0.20;0.20;;;22.80;48.00;;;;;;5877227;28;20047;-57
2022/09/30 10:14:44;;;;;;;0.20;0.20;;;23.10;48.30;;;;;;5916383;28;20055;-57
2022/09/30 10:17:52;;;;;;;0.05;0.00;;;22.90;48.10;;;;;;5945729;28;20702;-56
2022/09/30 10:20:57;;;;;;;0.20;0.20;;;23.10;48.30;;;;;;5915484;28;21222;-57
2022/09/30 10:24:19;;;;;;;0.20;0.15;;;22.80;48.20;;;;;;5912165;28;20259;-52
2022/09/30 10:27:29;;;;;;;0.20;0.20;;;22.60;48.20;;;;;;5952290;28;20334;-57
2022/09/30 10:30:45;;;;;;;0.20;0.13;;;23.20;48.50;;;;;;5949378;28;20243;-56
2022/09/30 10:33:53;;;;;;;0.10;0.10;;;23.30;48.70;;;;;;5960862;28;20130;-56
2022/09/30 10:36:56;;;;;;;0.10;0.10;;;23.10;48.50;;;;;;5973751;28;20054;-56
2022/09/30 10:40:01;;;;;;;0.10;0.10;;;23.10;48.50;;;;;;6016043;28;20149;-57
2022/09/30 10:43:02;;;;;;;0.17;0.17;;;23.00;48.50;;;;;;6011610;28;20070;-54
2022/09/30 10:46:06;;;;;;;0.10;0.10;;;22.70;48.40;;;;;;5981814;28;20734;-52
2022/09/30 10:49:36;;;;;;;0.10;0.10;;;22.80;62.40;;;;;;6003768;28;20134;-54
2022/09/30 10:52:46;;;;;;;0.10;0.10;;;23.00;48.50;;;;;;5976593;28;20937;-54
2022/09/30 10:55:47;;;;;;;0.20;0.10;;;23.30;48.60;;;;;;6027665;28;20054;-56
2022/09/30 10:58:53;;;;;;;0.10;0.10;;;22.60;48.30;;;;;;6024437;28;21104;-56
2022/09/30 11:02:14;;;;;;;0.10;0.08;;;22.80;48.40;;;;;;6003035;28;20141;-54
2022/09/30 11:05:21;;;;;;;0.10;0.10;;;22.90;48.40;;;;;;6014101;28;20282;-56
2022/09/30 11:08:29;;;;;;;0.10;0.10;;;23.20;48.60;;;;;;6016522;28;20122;-55
2022/09/30 11:11:37;;;;;;;0.10;0.10;;;23.30;48.50;;;;;;6014507;28;20047;-57
2022/09/30 11:14:44;;;;;;;0.22;0.20;;;23.30;48.60;;;;;;5993433;28;20067;-56
2022/09/30 11:17:52;;;;;;;0.10;0.10;;;22.90;48.30;;;;;;6025405;28;20046;-56
2022/09/30 11:21:01;;;;;;;0.10;0.10;;;23.10;48.30;;;;;;6029957;28;21047;-57
2022/09/30 11:24:15;;;;;;;0.10;0.10;;;23.20;48.30;;;;;;6017171;28;20051;-55
2022/09/30 11:27:21;;;;;;;0.10;0.10;;;23.00;48.10;;;;;;6038702;28;20058;-55
2022/09/30 11:30:29;;;;;;;0.10;0.10;;;23.30;48.20;;;;;;6020159;28;21587;-56
2022/09/30 11:33:42;;;;;;;0.10;0.10;;;23.30;48.30;;;;;;6026893;28;20083;-56
2022/09/30 11:36:50;;;;;;;0.15;0.10;;;23.10;48.00;;;;;;6019543;28;20035;-52
2022/09/30 11:40:13;;;;;;;0.30;0.13;;;23.30;48.00;;;;;;5984998;28;20050;-55
2022/09/30 11:43:31;;;;;;;0.10;0.10;;;23.10;47.90;;;;;;5993509;28;20054;-57
2022/09/30 11:46:56;;;;;;;0.10;0.10;;;23.20;47.80;;;;;;5976722;28;20228;-56
2022/09/30 11:50:18;;;;;;;0.15;0.10;;;23.30;47.90;;;;;;5981342;28;20046;-57
2022/09/30 11:53:26;;;;;;;;;;;23.10;47.70;;;;;;5971322;28;20054;-55
2022/09/30 11:56:42;;;;;;;0.20;0.20;;;23.20;47.70;;;;;;5972220;28;19956;-57
2022/09/30 11:59:47;;;;;;;0.10;0.10;;;22.80;47.50;;;;;;5941597;28;20046;-54
2022/09/30 12:02:52;;;;;;;0.20;0.20;;;23.20;47.60;;;;;;5918154;28;20443;-57
2022/09/30 12:05:57;;;;;;;0.10;0.10;;;23.00;47.50;;;;;;5938267;28;20325;-58
2022/09/30 12:09:08;;;;;;;0.20;0.20;;;23.30;47.60;;;;;;5943125;28;20051;-58
2022/09/30 12:12:13;;;;;;;0.10;0.10;;;23.10;47.40;;;;;;5966232;28;20086;-58
2022/09/30 12:15:22;;;;;;;0.20;0.20;;;23.20;47.50;;;;;;5977569;28;20051;-57
2022/09/30 12:18:31;;;;;;;0.43;0.10;;;23.40;47.40;;;;;;5986773;28;20075;-55
2022/09/30 12:21:38;;;;;;;0.20;0.20;;;23.30;47.30;;;;;;5954954;28;20136;-57
2022/09/30 12:24:43;;;;;;;0.10;0.10;;;23.20;47.20;;;;;;5960653;28;20062;-58
2022/09/30 12:27:47;;;;;;;0.32;0.17;;;23.40;47.30;;;;;;5944364;28;22522;-56
2022/09/30 12:31:02;;;;;;;0.10;0.10;;;23.00;47.10;;;;;;5961040;28;20625;-55
2022/09/30 12:34:19;;;;;;;0.98;0.10;;;23.50;47.30;;;;;;5937797;28;20631;-55
2022/09/30 12:37:34;;;;;;;0.10;0.10;;;23.30;47.20;;;;;;5925946;28;20186;-58
2022/09/30 12:40:49;;;;;;;0.10;0.10;;;23.40;47.10;;;;;;5939295;28;20054;-58
2022/09/30 12:44:21;;;;;;;0.20;0.20;;;23.50;47.10;;;;;;5971122;28;20043;-56
2022/09/30 12:47:33;;;;;;;0.20;0.20;;;23.30;47.00;;;;;;5962340;28;21285;-56
2022/09/30 12:50:43;;;;;;;0.28;0.13;;;22.90;46.70;;;;;;5957659;28;20137;-57
2022/09/30 12:53:50;;;;;;;0.10;0.10;;;23.40;46.90;;;;;;5962858;28;21159;-58
2022/09/30 12:56:55;;;;;;;0.10;0.10;;;23.60;47.10;;;;;;5952938;28;20125;-57
2022/09/30 13:00:01;;;;;;;0.15;0.10;;;23.50;46.90;;;;;;5934836;28;20046;-57
2022/09/30 13:03:07;;;;;;;0.20;0.20;;;23.50;46.90;;;;;;5949677;28;20047;-58
2022/09/30 13:06:09;;;;;;;0.30;0.20;;;23.50;46.80;;;;;;5925133;28;20042;-57
2022/09/30 13:09:21;;;;;;;0.77;0.30;;;23.60;46.90;;;;;;5930766;28;20047;-56
2022/09/30 13:12:27;;;;;;;0.47;0.13;;;23.60;46.80;;;;;;5964238;28;20062;-56
2022/09/30 13:15:44;;;;;;;0.93;0.10;;;23.40;47.30;;;;;;5953528;28;20050;-56
2022/09/30 13:19:01;;;;;;;0.05;0.05;;;23.40;46.70;;;;;;5935814;28;20047;-56
2022/09/30 13:22:29;;;;;;;0.20;0.20;;;23.50;46.70;;;;;;5955122;28;20226;-57
2022/09/30 13:25:52;;;;;;;0.13;0.13;;;23.80;46.80;;;;;;5958987;28;20047;-54
2022/09/30 13:29:29;;;;;;;0.20;0.20;;;23.60;46.70;;;;;;5931943;28;20065;-55
2022/09/30 13:32:36;;;;;;;0.35;0.13;;;23.60;46.60;;;;;;5941209;28;20618;-54
2022/09/30 13:35:49;;;;;;;0.20;0.20;;;23.60;46.60;;;;;;5936971;28;20043;-57
2022/09/30 13:39:07;;;;;;;0.38;0.20;;;23.20;46.30;;;;;;5917041;28;22179;-55
2022/09/30 13:42:16;;;;;;;0.10;0.10;;;23.30;46.20;;;;;;5936231;28;20051;-57
2022/09/30 13:45:30;;;;;;;0.10;0.10;;;23.60;46.30;;;;;;5929549;28;20141;-55
2022/09/30 13:48:34;;;;;;;0.35;0.20;;;23.60;46.30;;;;;;5933716;28;20047;-56
2022/09/30 13:51:39;;;;;;;0.20;0.20;;;23.50;46.20;;;;;;5944143;28;20802;-54
2022/09/30 13:54:46;;;;;;;0.20;0.20;;;23.70;46.20;;;;;;5888437;28;20039;-55
2022/09/30 13:58:01;;;;;;;0.20;0.20;;;23.70;46.10;;;;;;5941235;28;21513;-56
2022/09/30 14:01:12;;;;;;;0.20;0.20;;;23.70;46.10;;;;;;5895517;28;20065;-57
2022/09/30 14:04:31;;;;;;;;;;;23.40;45.90;;;;;;5836723;28;20051;-54
2022/09/30 14:07:44;;;;;;;0.20;0.10;;;23.70;46.20;;;;;;5876345;28;19936;-57
2022/09/30 14:11:00;;;;;;;0.20;0.20;;;23.60;45.90;;;;;;5952440;28;20062;-56
2022/09/30 14:14:17;;;;;;;0.43;0.20;;;23.50;45.90;;;;;;5946302;28;20055;-56
2022/09/30 14:17:31;;;;;;;0.20;0.10;;;23.50;45.80;;;;;;5940849;28;20078;-54
2022/09/30 14:20:46;;;;;;;0.10;0.10;;;23.80;46.00;;;;;;5931934;28;20047;-58
2022/09/30 14:23:57;;;;;;;0.10;0.10;;;23.70;45.90;;;;;;5945432;28;20057;-57
2022/09/30 14:27:15;;;;;;;0.20;0.20;;;23.60;45.90;;;;;;5946410;28;20058;-56
2022/09/30 14:30:19;;;;;;;0.10;0.10;;;23.60;45.90;;;;;;5934639;28;20126;-57
2022/09/30 14:33:26;;;;;;;0.38;0.20;;;23.50;45.90;;;;;;5952505;28;20146;-57
2022/09/30 14:36:28;;;;;;;0.05;0.05;;;23.40;45.80;;;;;;5957202;28;20053;-55
2022/09/30 14:39:31;;;;;;;0.20;0.20;;;24.10;46.20;;;;;;5970365;28;20043;-56
2022/09/30 14:42:37;;;;;;;0.20;0.20;;;23.50;45.90;;;;;;5963230;28;20063;-55
2022/09/30 14:45:42;;;;;;;0.10;0.10;;;23.70;46.00;;;;;;5949980;28;20057;-56
2022/09/30 14:48:49;;;;;;;0.10;0.10;;;23.60;46.00;;;;;;5932524;28;20153;-55
2022/09/30 14:51:51;;;;;;;0.20;0.20;;;23.90;46.10;;;;;;5963245;28;20047;-56
2022/09/30 14:54:53;;;;;;;0.17;0.17;;;23.90;46.20;;;;;;5973362;28;20055;-57
2022/09/30 14:58:11;;;;;;;0.75;0.20;;;23.70;46.00;;;;;;5964184;28;20051;-56
2022/09/30 15:01:16;;;;;;;0.20;0.13;;;23.80;46.10;;;;;;5960508;28;20169;-58
2022/09/30 15:04:24;;;;;;;0.45;0.20;;;23.60;45.90;;;;;;5950042;28;20053;-57
2022/09/30 15:07:25;;;;;;;0.20;0.20;;;23.80;46.10;;;;;;5974635;28;20151;-56
2022/09/30 15:10:31;;;;;;;0.40;0.30;;;23.60;45.90;;;;;;5950216;28;20047;-57
2022/09/30 15:13:33;;;;;;;0.55;0.40;;;24.00;46.10;;;;;;5970272;28;21510;-53
2022/09/30 15:16:44;;;;;;;0.38;0.30;;;23.80;46.00;;;;;;5985286;28;20051;-54
2022/09/30 15:19:49;;;;;;;;;;;23.60;45.90;;;;;;5987139;28;20799;-55
2022/09/30 15:22:53;;;;;;;0.35;0.30;;;23.60;45.90;;;;;;5997148;28;19930;-52
2022/09/30 15:25:56;;;;;;;0.40;0.32;;;23.60;45.90;;;;;;5993119;28;20212;-54
2022/09/30 15:28:58;;;;;;;0.60;0.40;;;23.80;46.00;;;;;;5967294;28;20294;-55
2022/09/30 15:32:03;;;;;;;0.98;0.55;;;23.70;46.00;;;;;;5981293;28;21388;-52
2022/09/30 15:35:11;;;;;;;1.23;0.60;;;23.60;46.00;;;;;;5987359;28;20160;-54
2022/09/30 15:38:19;;;;;;;1.10;0.60;;;23.90;46.20;;;;;;5990978;28;20137;-57
2022/09/30 15:41:21;;;;;;;0.70;0.50;;;24.00;46.20;;;;;;6011125;28;20046;-56
2022/09/30 15:44:37;;;;;;;1.40;1.00;;;23.90;46.20;;;;;;6003946;28;20047;-55
2022/09/30 15:47:53;;;;;;;1.30;0.90;;;23.80;46.30;;;;;;6036033;28;20047;-57
2022/09/30 15:51:00;;;;;;;1.80;1.20;;;23.70;46.30;;;;;;6031795;28;21206;-59
2022/09/30 15:54:25;;;;;;;1.90;1.17;;;23.30;46.00;;;;;;6037566;28;20059;-59
2022/09/30 15:57:44;;;;;;;1.75;1.27;;;23.70;46.20;;;;;;6034307;28;20054;-58
2022/09/30 16:00:46;;;;;;;1.55;1.02;;;23.80;46.40;;;;;;6040639;28;20051;-59
2022/09/30 16:03:53;;;;;;;1.25;0.75;;;23.60;46.20;;;;;;6047699;28;20055;-58
2022/09/30 16:06:56;;;;;;;1.30;1.10;;;23.80;46.30;;;;;;6038589;28;20047;-59
2022/09/30 16:09:58;;;;;;;1.80;1.05;;;23.80;46.40;;;;;;6047577;28;20046;-58
2022/09/30 16:13:01;;;;;;;1.20;0.98;;;23.60;46.30;;;;;;6048817;28;20059;-59
2022/09/30 16:16:06;;;;;;;1.10;0.90;;;23.80;46.50;;;;;;6060479;28;20043;-59
2022/09/30 16:19:16;;;;;;;1.20;0.90;;;23.60;46.40;;;;;;6066801;28;20183;-52
2022/09/30 16:22:35;;;;;;;1.02;0.80;;;24.00;46.70;;;;;;6069935;28;21069;-56